sensor_id;sensor_type;location;lat;lon;timestamp;P1;durP1;ratioP1;P2;durP2;ratioP2
73266;SDS011;61495;53.400;7.608;2023-04-27T00:01:54;3.67;;;1.52;;
73266;SDS011;61495;53.400;7.608;2023-04-27T00:04:19;6.05;;;1.88;;
73266;SDS011;61495;53.400;7.608;2023-04-27T00:06:45;3.72;;;1.70;;
73266;SDS011;61495;53.400;7.608;2023-04-27T00:09:10;6.20;;;1.75;;
73266;SDS011;61495;53.400;7.608;2023-04-27T00:11:36;5.07;;;1.73;;
73266;SDS011;61495;53.400;7.608;2023-04-27T00:14:01;5.65;;;2.28;;
73266;SDS011;61495;53.400;7.608;2023-04-27T00:16:27;4.22;;;1.80;;
73266;SDS011;61495;53.400;7.608;2023-04-27T00:18:52;4.28;;;1.58;;
73266;SDS011;61495;53.400;7.608;2023-04-27T00:21:18;5.50;;;1.80;;
73266;SDS011;61495;53.400;7.608;2023-04-27T00:23:43;4.50;;;2.10;;
73266;SDS011;61495;53.400;7.608;2023-04-27T00:26:08;3.15;;;1.30;;
73266;SDS011;61495;53.400;7.608;2023-04-27T00:28:34;4.45;;;2.00;;
73266;SDS011;61495;53.400;7.608;2023-04-27T00:30:59;4.80;;;1.60;;
73266;SDS011;61495;53.400;7.608;2023-04-27T00:33:27;5.90;;;2.13;;
73266;SDS011;61495;53.400;7.608;2023-04-27T00:35:53;4.78;;;2.05;;
73266;SDS011;61495;53.400;7.608;2023-04-27T00:38:18;4.00;;;1.90;;
73266;SDS011;61495;53.400;7.608;2023-04-27T00:40:44;3.85;;;1.67;;
73266;SDS011;61495;53.400;7.608;2023-04-27T00:43:09;5.93;;;2.17;;
73266;SDS011;61495;53.400;7.608;2023-04-27T00:45:36;4.47;;;1.70;;
73266;SDS011;61495;53.400;7.608;2023-04-27T00:48:06;4.28;;;1.58;;
73266;SDS011;61495;53.400;7.608;2023-04-27T00:50:31;5.10;;;2.40;;
73266;SDS011;61495;53.400;7.608;2023-04-27T00:52:57;5.18;;;2.38;;
73266;SDS011;61495;53.400;7.608;2023-04-27T00:55:23;4.75;;;1.80;;
73266;SDS011;61495;53.400;7.608;2023-04-27T00:57:48;4.50;;;2.05;;
73266;SDS011;61495;53.400;7.608;2023-04-27T01:00:14;5.13;;;1.50;;
73266;SDS011;61495;53.400;7.608;2023-04-27T01:02:39;6.80;;;2.17;;
73266;SDS011;61495;53.400;7.608;2023-04-27T01:05:05;5.43;;;2.03;;
73266;SDS011;61495;53.400;7.608;2023-04-27T01:07:32;4.32;;;2.22;;
73266;SDS011;61495;53.400;7.608;2023-04-27T01:10:00;5.03;;;1.80;;
73266;SDS011;61495;53.400;7.608;2023-04-27T01:12:26;4.47;;;2.20;;
73266;SDS011;61495;53.400;7.608;2023-04-27T01:14:51;4.43;;;1.90;;
73266;SDS011;61495;53.400;7.608;2023-04-27T01:17:16;4.15;;;2.10;;
73266;SDS011;61495;53.400;7.608;2023-04-27T01:19:43;4.38;;;2.03;;
73266;SDS011;61495;53.400;7.608;2023-04-27T01:22:09;4.45;;;2.00;;
73266;SDS011;61495;53.400;7.608;2023-04-27T01:24:34;5.03;;;2.22;;
73266;SDS011;61495;53.400;7.608;2023-04-27T01:27:00;5.78;;;2.10;;
73266;SDS011;61495;53.400;7.608;2023-04-27T01:29:26;5.72;;;1.88;;
73266;SDS011;61495;53.400;7.608;2023-04-27T01:31:52;5.85;;;2.38;;
73266;SDS011;61495;53.400;7.608;2023-04-27T01:34:17;5.45;;;2.28;;
73266;SDS011;61495;53.400;7.608;2023-04-27T01:36:43;8.13;;;2.75;;
73266;SDS011;61495;53.400;7.608;2023-04-27T01:39:14;6.78;;;2.47;;
73266;SDS011;61495;53.400;7.608;2023-04-27T01:41:49;5.88;;;2.10;;
73266;SDS011;61495;53.400;7.608;2023-04-27T01:44:36;4.15;;;2.00;;
73266;SDS011;61495;53.400;7.608;2023-04-27T01:47:23;4.63;;;1.77;;
73266;SDS011;61495;53.400;7.608;2023-04-27T01:49:58;5.45;;;1.92;;
73266;SDS011;61495;53.400;7.608;2023-04-27T01:52:36;4.57;;;2.08;;
73266;SDS011;61495;53.400;7.608;2023-04-27T01:55:14;7.25;;;2.40;;
73266;SDS011;61495;53.400;7.608;2023-04-27T01:57:49;5.43;;;2.33;;
73266;SDS011;61495;53.400;7.608;2023-04-27T02:00:14;4.97;;;2.28;;
73266;SDS011;61495;53.400;7.608;2023-04-27T02:02:40;5.97;;;2.25;;
73266;SDS011;61495;53.400;7.608;2023-04-27T02:05:05;7.07;;;2.25;;
73266;SDS011;61495;53.400;7.608;2023-04-27T02:07:31;4.93;;;2.15;;
73266;SDS011;61495;53.400;7.608;2023-04-27T02:09:56;5.75;;;2.15;;
73266;SDS011;61495;53.400;7.608;2023-04-27T02:12:22;5.43;;;2.17;;
73266;SDS011;61495;53.400;7.608;2023-04-27T02:14:47;5.00;;;2.30;;
73266;SDS011;61495;53.400;7.608;2023-04-27T02:17:13;8.90;;;2.35;;
73266;SDS011;61495;53.400;7.608;2023-04-27T02:19:38;8.43;;;2.07;;
73266;SDS011;61495;53.400;7.608;2023-04-27T02:22:03;4.83;;;1.93;;
73266;SDS011;61495;53.400;7.608;2023-04-27T02:24:28;5.10;;;2.13;;
73266;SDS011;61495;53.400;7.608;2023-04-27T02:26:54;5.25;;;1.98;;
73266;SDS011;61495;53.400;7.608;2023-04-27T02:29:19;5.57;;;2.10;;
73266;SDS011;61495;53.400;7.608;2023-04-27T02:31:45;4.20;;;1.90;;
73266;SDS011;61495;53.400;7.608;2023-04-27T02:34:10;4.10;;;1.95;;
73266;SDS011;61495;53.400;7.608;2023-04-27T02:36:36;4.65;;;2.10;;
73266;SDS011;61495;53.400;7.608;2023-04-27T02:39:01;5.50;;;2.63;;
73266;SDS011;61495;53.400;7.608;2023-04-27T02:41:30;7.60;;;2.33;;
73266;SDS011;61495;53.400;7.608;2023-04-27T02:43:56;6.78;;;2.30;;
73266;SDS011;61495;53.400;7.608;2023-04-27T02:46:21;4.95;;;2.33;;
73266;SDS011;61495;53.400;7.608;2023-04-27T02:48:47;4.25;;;1.95;;
73266;SDS011;61495;53.400;7.608;2023-04-27T02:51:12;4.97;;;2.00;;
73266;SDS011;61495;53.400;7.608;2023-04-27T02:53:38;5.57;;;2.15;;
73266;SDS011;61495;53.400;7.608;2023-04-27T02:56:03;5.32;;;2.15;;
73266;SDS011;61495;53.400;7.608;2023-04-27T02:58:29;5.15;;;1.85;;
73266;SDS011;61495;53.400;7.608;2023-04-27T03:00:55;4.47;;;2.45;;
73266;SDS011;61495;53.400;7.608;2023-04-27T03:03:21;6.65;;;2.85;;
73266;SDS011;61495;53.400;7.608;2023-04-27T03:05:47;6.40;;;2.72;;
73266;SDS011;61495;53.400;7.608;2023-04-27T03:08:12;4.15;;;2.33;;
73266;SDS011;61495;53.400;7.608;2023-04-27T03:10:38;5.60;;;2.23;;
73266;SDS011;61495;53.400;7.608;2023-04-27T03:13:03;7.27;;;2.60;;
73266;SDS011;61495;53.400;7.608;2023-04-27T03:15:28;6.30;;;2.65;;
73266;SDS011;61495;53.400;7.608;2023-04-27T03:17:54;5.25;;;2.22;;
73266;SDS011;61495;53.400;7.608;2023-04-27T03:20:20;5.45;;;1.92;;
73266;SDS011;61495;53.400;7.608;2023-04-27T03:22:46;4.88;;;2.85;;
73266;SDS011;61495;53.400;7.608;2023-04-27T03:25:11;5.20;;;2.28;;
73266;SDS011;61495;53.400;7.608;2023-04-27T03:27:37;5.40;;;2.17;;
73266;SDS011;61495;53.400;7.608;2023-04-27T03:30:02;5.30;;;2.63;;
73266;SDS011;61495;53.400;7.608;2023-04-27T03:32:29;3.78;;;1.85;;
73266;SDS011;61495;53.400;7.608;2023-04-27T03:34:54;4.78;;;2.17;;
73266;SDS011;61495;53.400;7.608;2023-04-27T03:37:20;5.85;;;1.90;;
73266;SDS011;61495;53.400;7.608;2023-04-27T03:39:45;4.38;;;1.98;;
73266;SDS011;61495;53.400;7.608;2023-04-27T03:42:11;5.18;;;2.20;;
73266;SDS011;61495;53.400;7.608;2023-04-27T03:44:36;4.53;;;2.58;;
73266;SDS011;61495;53.400;7.608;2023-04-27T03:47:02;5.45;;;2.03;;
73266;SDS011;61495;53.400;7.608;2023-04-27T03:49:27;6.20;;;2.38;;
73266;SDS011;61495;53.400;7.608;2023-04-27T03:51:53;6.07;;;2.40;;
73266;SDS011;61495;53.400;7.608;2023-04-27T03:54:18;5.63;;;2.20;;
73266;SDS011;61495;53.400;7.608;2023-04-27T03:56:43;4.00;;;1.90;;
73266;SDS011;61495;53.400;7.608;2023-04-27T03:59:09;5.30;;;2.38;;
73266;SDS011;61495;53.400;7.608;2023-04-27T04:01:35;5.93;;;2.67;;
73266;SDS011;61495;53.400;7.608;2023-04-27T04:04:01;4.35;;;1.83;;
73266;SDS011;61495;53.400;7.608;2023-04-27T04:06:26;4.55;;;1.80;;
73266;SDS011;61495;53.400;7.608;2023-04-27T04:08:52;4.32;;;1.67;;
73266;SDS011;61495;53.400;7.608;2023-04-27T04:11:18;5.03;;;2.22;;
73266;SDS011;61495;53.400;7.608;2023-04-27T04:13:48;4.88;;;1.83;;
73266;SDS011;61495;53.400;7.608;2023-04-27T04:16:13;5.97;;;2.28;;
73266;SDS011;61495;53.400;7.608;2023-04-27T04:18:39;3.85;;;1.58;;
73266;SDS011;61495;53.400;7.608;2023-04-27T04:21:04;6.50;;;2.00;;
73266;SDS011;61495;53.400;7.608;2023-04-27T04:23:30;5.43;;;1.83;;
73266;SDS011;61495;53.400;7.608;2023-04-27T04:25:57;4.32;;;1.85;;
73266;SDS011;61495;53.400;7.608;2023-04-27T04:28:23;5.30;;;1.63;;
73266;SDS011;61495;53.400;7.608;2023-04-27T04:30:49;4.47;;;1.90;;
73266;SDS011;61495;53.400;7.608;2023-04-27T04:33:15;5.03;;;2.10;;
73266;SDS011;61495;53.400;7.608;2023-04-27T04:35:41;4.82;;;1.88;;
73266;SDS011;61495;53.400;7.608;2023-04-27T04:38:07;4.53;;;1.63;;
73266;SDS011;61495;53.400;7.608;2023-04-27T04:40:33;7.28;;;2.28;;
73266;SDS011;61495;53.400;7.608;2023-04-27T04:43:04;4.85;;;2.05;;
73266;SDS011;61495;53.400;7.608;2023-04-27T04:45:29;4.93;;;1.75;;
73266;SDS011;61495;53.400;7.608;2023-04-27T04:47:55;4.68;;;2.03;;
73266;SDS011;61495;53.400;7.608;2023-04-27T04:50:20;4.65;;;2.15;;
73266;SDS011;61495;53.400;7.608;2023-04-27T04:52:47;3.97;;;1.95;;
73266;SDS011;61495;53.400;7.608;2023-04-27T04:55:12;5.70;;;2.33;;
73266;SDS011;61495;53.400;7.608;2023-04-27T04:57:38;6.50;;;2.45;;
73266;SDS011;61495;53.400;7.608;2023-04-27T05:00:03;6.53;;;2.45;;
73266;SDS011;61495;53.400;7.608;2023-04-27T05:02:31;5.47;;;2.50;;
73266;SDS011;61495;53.400;7.608;2023-04-27T05:04:57;4.50;;;1.90;;
73266;SDS011;61495;53.400;7.608;2023-04-27T05:07:22;4.50;;;2.15;;
73266;SDS011;61495;53.400;7.608;2023-04-27T05:09:48;5.32;;;2.13;;
73266;SDS011;61495;53.400;7.608;2023-04-27T05:12:13;5.57;;;2.28;;
73266;SDS011;61495;53.400;7.608;2023-04-27T05:14:38;4.53;;;2.17;;
73266;SDS011;61495;53.400;7.608;2023-04-27T05:17:04;5.72;;;2.63;;
73266;SDS011;61495;53.400;7.608;2023-04-27T05:19:29;4.93;;;2.20;;
73266;SDS011;61495;53.400;7.608;2023-04-27T05:21:55;4.85;;;2.08;;
73266;SDS011;61495;53.400;7.608;2023-04-27T05:24:21;6.18;;;2.72;;
73266;SDS011;61495;53.400;7.608;2023-04-27T05:26:46;6.77;;;2.47;;
73266;SDS011;61495;53.400;7.608;2023-04-27T05:29:12;7.18;;;2.85;;
73266;SDS011;61495;53.400;7.608;2023-04-27T05:31:38;6.95;;;3.03;;
73266;SDS011;61495;53.400;7.608;2023-04-27T05:34:03;6.97;;;3.27;;
73266;SDS011;61495;53.400;7.608;2023-04-27T05:36:28;6.57;;;2.60;;
73266;SDS011;61495;53.400;7.608;2023-04-27T05:38:54;9.68;;;3.33;;
73266;SDS011;61495;53.400;7.608;2023-04-27T05:41:20;8.20;;;3.72;;
73266;SDS011;61495;53.400;7.608;2023-04-27T05:43:50;7.55;;;3.03;;
73266;SDS011;61495;53.400;7.608;2023-04-27T05:46:15;8.20;;;3.58;;
73266;SDS011;61495;53.400;7.608;2023-04-27T05:48:41;7.90;;;3.38;;
73266;SDS011;61495;53.400;7.608;2023-04-27T05:51:06;6.90;;;2.92;;
73266;SDS011;61495;53.400;7.608;2023-04-27T05:53:32;7.00;;;3.35;;
73266;SDS011;61495;53.400;7.608;2023-04-27T05:55:58;8.82;;;3.60;;
73266;SDS011;61495;53.400;7.608;2023-04-27T05:58:25;8.85;;;3.85;;
73266;SDS011;61495;53.400;7.608;2023-04-27T06:00:51;9.82;;;3.53;;
73266;SDS011;61495;53.400;7.608;2023-04-27T06:03:17;6.35;;;3.25;;
73266;SDS011;61495;53.400;7.608;2023-04-27T06:05:43;8.82;;;3.17;;
73266;SDS011;61495;53.400;7.608;2023-04-27T06:08:08;6.72;;;3.17;;
73266;SDS011;61495;53.400;7.608;2023-04-27T06:10:34;9.50;;;3.20;;
73266;SDS011;61495;53.400;7.608;2023-04-27T06:13:00;10.38;;;4.10;;
73266;SDS011;61495;53.400;7.608;2023-04-27T06:15:26;7.45;;;3.70;;
73266;SDS011;61495;53.400;7.608;2023-04-27T06:17:51;12.02;;;3.70;;
73266;SDS011;61495;53.400;7.608;2023-04-27T06:20:16;9.60;;;3.65;;
73266;SDS011;61495;53.400;7.608;2023-04-27T06:22:42;9.05;;;3.75;;
73266;SDS011;61495;53.400;7.608;2023-04-27T06:25:07;7.15;;;4.00;;
73266;SDS011;61495;53.400;7.608;2023-04-27T06:27:33;11.48;;;3.38;;
73266;SDS011;61495;53.400;7.608;2023-04-27T06:29:59;9.32;;;3.35;;
73266;SDS011;61495;53.400;7.608;2023-04-27T06:32:24;6.30;;;3.53;;
73266;SDS011;61495;53.400;7.608;2023-04-27T06:34:49;7.80;;;3.83;;
73266;SDS011;61495;53.400;7.608;2023-04-27T06:37:15;8.63;;;3.85;;
73266;SDS011;61495;53.400;7.608;2023-04-27T06:39:42;6.70;;;2.92;;
73266;SDS011;61495;53.400;7.608;2023-04-27T06:42:08;8.90;;;3.28;;
73266;SDS011;61495;53.400;7.608;2023-04-27T06:44:33;6.82;;;4.00;;
73266;SDS011;61495;53.400;7.608;2023-04-27T06:46:59;8.60;;;3.63;;
73266;SDS011;61495;53.400;7.608;2023-04-27T06:49:24;7.28;;;3.05;;
73266;SDS011;61495;53.400;7.608;2023-04-27T06:51:49;7.13;;;3.25;;
73266;SDS011;61495;53.400;7.608;2023-04-27T06:54:15;7.03;;;3.47;;
73266;SDS011;61495;53.400;7.608;2023-04-27T06:56:40;7.13;;;3.22;;
73266;SDS011;61495;53.400;7.608;2023-04-27T06:59:06;6.13;;;2.97;;
73266;SDS011;61495;53.400;7.608;2023-04-27T07:01:32;7.35;;;3.10;;
73266;SDS011;61495;53.400;7.608;2023-04-27T07:03:57;5.85;;;2.78;;
73266;SDS011;61495;53.400;7.608;2023-04-27T07:06:22;5.53;;;2.85;;
73266;SDS011;61495;53.400;7.608;2023-04-27T07:08:49;5.28;;;2.50;;
73266;SDS011;61495;53.400;7.608;2023-04-27T07:11:15;6.53;;;3.08;;
73266;SDS011;61495;53.400;7.608;2023-04-27T07:13:43;6.28;;;2.70;;
73266;SDS011;61495;53.400;7.608;2023-04-27T07:16:08;7.18;;;2.78;;
73266;SDS011;61495;53.400;7.608;2023-04-27T07:18:34;4.97;;;2.75;;
73266;SDS011;61495;53.400;7.608;2023-04-27T07:20:59;7.35;;;3.03;;
73266;SDS011;61495;53.400;7.608;2023-04-27T07:23:25;4.70;;;2.65;;
73266;SDS011;61495;53.400;7.608;2023-04-27T07:25:50;7.03;;;2.80;;
73266;SDS011;61495;53.400;7.608;2023-04-27T07:28:16;7.63;;;3.08;;
73266;SDS011;61495;53.400;7.608;2023-04-27T07:30:42;6.70;;;2.20;;
73266;SDS011;61495;53.400;7.608;2023-04-27T07:33:08;5.88;;;2.88;;
73266;SDS011;61495;53.400;7.608;2023-04-27T07:35:34;4.93;;;2.30;;
73266;SDS011;61495;53.400;7.608;2023-04-27T07:38:00;4.20;;;1.92;;
73266;SDS011;61495;53.400;7.608;2023-04-27T07:40:26;5.30;;;2.72;;
73266;SDS011;61495;53.400;7.608;2023-04-27T07:42:55;5.32;;;2.58;;
73266;SDS011;61495;53.400;7.608;2023-04-27T07:45:22;6.15;;;2.88;;
73266;SDS011;61495;53.400;7.608;2023-04-27T07:47:55;5.43;;;1.98;;
73266;SDS011;61495;53.400;7.608;2023-04-27T07:50:21;6.72;;;2.78;;
73266;SDS011;61495;53.400;7.608;2023-04-27T07:52:49;7.47;;;2.80;;
73266;SDS011;61495;53.400;7.608;2023-04-27T07:55:14;5.30;;;2.80;;
73266;SDS011;61495;53.400;7.608;2023-04-27T07:57:40;4.50;;;2.42;;
73266;SDS011;61495;53.400;7.608;2023-04-27T08:00:05;6.43;;;2.75;;
73266;SDS011;61495;53.400;7.608;2023-04-27T08:02:35;6.32;;;2.42;;
73266;SDS011;61495;53.400;7.608;2023-04-27T08:05:00;6.72;;;3.15;;
73266;SDS011;61495;53.400;7.608;2023-04-27T08:07:26;6.65;;;2.13;;
73266;SDS011;61495;53.400;7.608;2023-04-27T08:09:52;4.57;;;2.03;;
73266;SDS011;61495;53.400;7.608;2023-04-27T08:12:20;5.50;;;2.03;;
73266;SDS011;61495;53.400;7.608;2023-04-27T08:14:46;4.95;;;2.50;;
73266;SDS011;61495;53.400;7.608;2023-04-27T08:17:11;5.90;;;2.53;;
73266;SDS011;61495;53.400;7.608;2023-04-27T08:19:36;6.43;;;2.53;;
73266;SDS011;61495;53.400;7.608;2023-04-27T08:22:02;5.00;;;2.55;;
73266;SDS011;61495;53.400;7.608;2023-04-27T08:24:27;4.88;;;2.45;;
73266;SDS011;61495;53.400;7.608;2023-04-27T08:26:53;4.82;;;2.38;;
73266;SDS011;61495;53.400;7.608;2023-04-27T08:29:18;3.88;;;2.15;;
73266;SDS011;61495;53.400;7.608;2023-04-27T08:31:43;5.05;;;2.17;;
73266;SDS011;61495;53.400;7.608;2023-04-27T08:34:09;5.63;;;2.30;;
73266;SDS011;61495;53.400;7.608;2023-04-27T08:36:34;5.45;;;2.22;;
73266;SDS011;61495;53.400;7.608;2023-04-27T08:39:00;4.88;;;2.30;;
73266;SDS011;61495;53.400;7.608;2023-04-27T08:41:25;4.82;;;2.28;;
73266;SDS011;61495;53.400;7.608;2023-04-27T08:43:53;5.53;;;2.42;;
73266;SDS011;61495;53.400;7.608;2023-04-27T08:46:22;5.18;;;2.75;;
73266;SDS011;61495;53.400;7.608;2023-04-27T08:48:51;6.55;;;2.75;;
73266;SDS011;61495;53.400;7.608;2023-04-27T08:51:20;4.57;;;2.13;;
73266;SDS011;61495;53.400;7.608;2023-04-27T08:53:47;6.18;;;2.90;;
73266;SDS011;61495;53.400;7.608;2023-04-27T08:56:15;4.20;;;2.20;;
73266;SDS011;61495;53.400;7.608;2023-04-27T08:58:42;5.43;;;2.55;;
73266;SDS011;61495;53.400;7.608;2023-04-27T09:01:07;5.32;;;2.60;;
73266;SDS011;61495;53.400;7.608;2023-04-27T09:03:33;4.82;;;2.40;;
73266;SDS011;61495;53.400;7.608;2023-04-27T09:06:00;5.32;;;2.30;;
73266;SDS011;61495;53.400;7.608;2023-04-27T09:08:26;4.63;;;2.20;;
73266;SDS011;61495;53.400;7.608;2023-04-27T09:10:52;5.78;;;2.63;;
73266;SDS011;61495;53.400;7.608;2023-04-27T09:13:22;4.72;;;2.20;;
73266;SDS011;61495;53.400;7.608;2023-04-27T09:15:48;5.30;;;2.45;;
73266;SDS011;61495;53.400;7.608;2023-04-27T09:18:15;5.07;;;2.38;;
73266;SDS011;61495;53.400;7.608;2023-04-27T09:20:46;6.07;;;2.08;;
73266;SDS011;61495;53.400;7.608;2023-04-27T09:23:24;5.18;;;2.05;;
73266;SDS011;61495;53.400;7.608;2023-04-27T09:25:55;4.72;;;2.20;;
73266;SDS011;61495;53.400;7.608;2023-04-27T09:28:22;4.25;;;2.42;;
73266;SDS011;61495;53.400;7.608;2023-04-27T09:30:55;4.70;;;2.40;;
73266;SDS011;61495;53.400;7.608;2023-04-27T09:33:29;5.32;;;2.55;;
73266;SDS011;61495;53.400;7.608;2023-04-27T09:35:58;4.53;;;2.15;;
73266;SDS011;61495;53.400;7.608;2023-04-27T09:38:25;6.90;;;2.58;;
73266;SDS011;61495;53.400;7.608;2023-04-27T09:40:52;5.13;;;2.47;;
73266;SDS011;61495;53.400;7.608;2023-04-27T09:43:24;4.28;;;2.88;;
73266;SDS011;61495;53.400;7.608;2023-04-27T09:45:51;5.20;;;2.42;;
73266;SDS011;61495;53.400;7.608;2023-04-27T09:48:18;5.00;;;2.75;;
73266;SDS011;61495;53.400;7.608;2023-04-27T09:50:45;7.43;;;2.70;;
73266;SDS011;61495;53.400;7.608;2023-04-27T09:53:14;4.07;;;2.42;;
73266;SDS011;61495;53.400;7.608;2023-04-27T09:55:43;5.50;;;2.20;;
73266;SDS011;61495;53.400;7.608;2023-04-27T10:09:22;4.50;;;2.83;;
73266;SDS011;61495;53.400;7.608;2023-04-27T10:11:49;5.22;;;2.75;;
73266;SDS011;61495;53.400;7.608;2023-04-27T10:14:21;6.13;;;2.95;;
73266;SDS011;61495;53.400;7.608;2023-04-27T10:16:51;4.57;;;2.72;;
73266;SDS011;61495;53.400;7.608;2023-04-27T10:19:18;7.38;;;3.05;;
73266;SDS011;61495;53.400;7.608;2023-04-27T10:24:38;6.88;;;2.83;;
73266;SDS011;61495;53.400;7.608;2023-04-27T10:27:08;8.27;;;2.88;;
73266;SDS011;61495;53.400;7.608;2023-04-27T10:32:10;5.28;;;2.80;;
73266;SDS011;61495;53.400;7.608;2023-04-27T10:34:45;5.55;;;2.92;;
73266;SDS011;61495;53.400;7.608;2023-04-27T10:37:13;5.93;;;2.53;;
73266;SDS011;61495;53.400;7.608;2023-04-27T10:39:40;4.93;;;2.20;;
73266;SDS011;61495;53.400;7.608;2023-04-27T10:42:13;4.80;;;2.90;;
73266;SDS011;61495;53.400;7.608;2023-04-27T10:44:39;6.85;;;2.83;;
73266;SDS011;61495;53.400;7.608;2023-04-27T10:47:14;7.00;;;2.97;;
73266;SDS011;61495;53.400;7.608;2023-04-27T10:49:40;5.75;;;3.10;;
73266;SDS011;61495;53.400;7.608;2023-04-27T10:52:06;6.05;;;3.38;;
73266;SDS011;61495;53.400;7.608;2023-04-27T10:54:32;9.85;;;3.55;;
73266;SDS011;61495;53.400;7.608;2023-04-27T10:57:02;5.20;;;3.25;;
73266;SDS011;61495;53.400;7.608;2023-04-27T10:59:32;5.85;;;3.63;;
73266;SDS011;61495;53.400;7.608;2023-04-27T11:01:58;6.55;;;3.15;;
73266;SDS011;61495;53.400;7.608;2023-04-27T11:04:23;7.78;;;3.45;;
73266;SDS011;61495;53.400;7.608;2023-04-27T11:06:59;5.93;;;3.30;;
73266;SDS011;61495;53.400;7.608;2023-04-27T11:09:25;5.85;;;3.22;;
73266;SDS011;61495;53.400;7.608;2023-04-27T11:11:51;7.00;;;3.58;;
73266;SDS011;61495;53.400;7.608;2023-04-27T11:14:25;6.53;;;2.85;;
73266;SDS011;61495;53.400;7.608;2023-04-27T11:16:50;5.47;;;2.97;;
73266;SDS011;61495;53.400;7.608;2023-04-27T11:19:16;6.53;;;3.28;;
73266;SDS011;61495;53.400;7.608;2023-04-27T11:21:42;6.57;;;3.10;;
73266;SDS011;61495;53.400;7.608;2023-04-27T11:24:08;6.47;;;3.03;;
73266;SDS011;61495;53.400;7.608;2023-04-27T11:26:36;7.63;;;3.47;;
73266;SDS011;61495;53.400;7.608;2023-04-27T11:29:03;6.60;;;2.90;;
73266;SDS011;61495;53.400;7.608;2023-04-27T11:31:45;7.80;;;3.28;;
73266;SDS011;61495;53.400;7.608;2023-04-27T11:34:22;7.47;;;3.47;;
73266;SDS011;61495;53.400;7.608;2023-04-27T11:37:00;7.95;;;3.20;;
73266;SDS011;61495;53.400;7.608;2023-04-27T11:39:27;6.18;;;3.30;;
73266;SDS011;61495;53.400;7.608;2023-04-27T11:41:56;6.15;;;3.17;;
73266;SDS011;61495;53.400;7.608;2023-04-27T11:44:28;10.68;;;3.67;;
73266;SDS011;61495;53.400;7.608;2023-04-27T11:46:53;8.88;;;3.83;;
73266;SDS011;61495;53.400;7.608;2023-04-27T11:49:19;6.82;;;4.07;;
73266;SDS011;61495;53.400;7.608;2023-04-27T11:51:44;7.35;;;3.45;;
73266;SDS011;61495;53.400;7.608;2023-04-27T11:54:10;7.50;;;3.75;;
73266;SDS011;61495;53.400;7.608;2023-04-27T11:56:37;8.40;;;3.72;;
73266;SDS011;61495;53.400;7.608;2023-04-27T11:59:04;8.77;;;4.00;;
73266;SDS011;61495;53.400;7.608;2023-04-27T12:01:30;9.52;;;4.57;;
73266;SDS011;61495;53.400;7.608;2023-04-27T12:03:57;6.32;;;4.13;;
73266;SDS011;61495;53.400;7.608;2023-04-27T12:06:25;7.28;;;3.38;;
73266;SDS011;61495;53.400;7.608;2023-04-27T12:08:53;7.38;;;3.28;;
73266;SDS011;61495;53.400;7.608;2023-04-27T12:11:22;6.30;;;3.03;;
73266;SDS011;61495;53.400;7.608;2023-04-27T12:13:55;6.45;;;3.10;;
73266;SDS011;61495;53.400;7.608;2023-04-27T12:16:21;6.18;;;2.88;;
73266;SDS011;61495;53.400;7.608;2023-04-27T12:18:48;6.50;;;2.95;;
73266;SDS011;61495;53.400;7.608;2023-04-27T12:21:13;7.80;;;3.10;;
73266;SDS011;61495;53.400;7.608;2023-04-27T12:23:39;6.68;;;3.15;;
73266;SDS011;61495;53.400;7.608;2023-04-27T12:26:06;7.47;;;3.45;;
73266;SDS011;61495;53.400;7.608;2023-04-27T12:28:31;6.07;;;2.95;;
73266;SDS011;61495;53.400;7.608;2023-04-27T12:30:56;5.88;;;3.03;;
73266;SDS011;61495;53.400;7.608;2023-04-27T12:33:22;5.18;;;2.83;;
73266;SDS011;61495;53.400;7.608;2023-04-27T12:35:47;6.47;;;2.78;;
73266;SDS011;61495;53.400;7.608;2023-04-27T12:38:12;6.45;;;2.80;;
73266;SDS011;61495;53.400;7.608;2023-04-27T12:40:38;5.82;;;2.80;;
73266;SDS011;61495;53.400;7.608;2023-04-27T12:43:03;5.95;;;2.78;;
73266;SDS011;61495;53.400;7.608;2023-04-27T12:45:28;6.35;;;3.03;;
73266;SDS011;61495;53.400;7.608;2023-04-27T12:47:54;6.45;;;3.15;;
73266;SDS011;61495;53.400;7.608;2023-04-27T12:50:20;5.78;;;3.28;;
73266;SDS011;61495;53.400;7.608;2023-04-27T12:52:46;7.53;;;3.53;;
73266;SDS011;61495;53.400;7.608;2023-04-27T12:55:12;6.63;;;2.90;;
73266;SDS011;61495;53.400;7.608;2023-04-27T12:57:37;7.43;;;3.03;;
73266;SDS011;61495;53.400;7.608;2023-04-27T13:00:03;7.65;;;3.70;;
73266;SDS011;61495;53.400;7.608;2023-04-27T13:02:31;6.13;;;3.10;;
73266;SDS011;61495;53.400;7.608;2023-04-27T13:04:58;6.07;;;3.22;;
73266;SDS011;61495;53.400;7.608;2023-04-27T13:07:24;6.40;;;3.03;;
73266;SDS011;61495;53.400;7.608;2023-04-27T13:09:49;6.38;;;3.30;;
73266;SDS011;61495;53.400;7.608;2023-04-27T13:12:21;8.32;;;3.90;;
73266;SDS011;61495;53.400;7.608;2023-04-27T13:14:48;7.95;;;3.00;;
73266;SDS011;61495;53.400;7.608;2023-04-27T13:17:13;8.20;;;3.05;;
73266;SDS011;61495;53.400;7.608;2023-04-27T13:19:39;4.60;;;2.47;;
73266;SDS011;61495;53.400;7.608;2023-04-27T13:22:04;4.63;;;2.45;;
73266;SDS011;61495;53.400;7.608;2023-04-27T13:24:33;6.10;;;2.85;;
73266;SDS011;61495;53.400;7.608;2023-04-27T13:26:59;6.00;;;3.42;;
73266;SDS011;61495;53.400;7.608;2023-04-27T13:29:25;5.80;;;3.00;;
73266;SDS011;61495;53.400;7.608;2023-04-27T13:31:50;5.35;;;3.28;;
73266;SDS011;61495;53.400;7.608;2023-04-27T13:34:16;5.90;;;2.95;;
73266;SDS011;61495;53.400;7.608;2023-04-27T13:36:43;6.55;;;2.63;;
73266;SDS011;61495;53.400;7.608;2023-04-27T13:39:08;7.50;;;2.92;;
73266;SDS011;61495;53.400;7.608;2023-04-27T13:41:34;6.88;;;2.90;;
73266;SDS011;61495;53.400;7.608;2023-04-27T13:44:05;5.63;;;2.70;;
73266;SDS011;61495;53.400;7.608;2023-04-27T13:46:30;6.25;;;3.67;;
73266;SDS011;61495;53.400;7.608;2023-04-27T13:48:55;7.47;;;3.13;;
73266;SDS011;61495;53.400;7.608;2023-04-27T13:51:21;6.13;;;3.28;;
73266;SDS011;61495;53.400;7.608;2023-04-27T13:53:47;5.28;;;2.63;;
73266;SDS011;61495;53.400;7.608;2023-04-27T13:56:12;4.50;;;2.65;;
73266;SDS011;61495;53.400;7.608;2023-04-27T13:58:38;5.38;;;2.60;;
73266;SDS011;61495;53.400;7.608;2023-04-27T14:01:05;5.60;;;3.10;;
73266;SDS011;61495;53.400;7.608;2023-04-27T14:03:31;5.80;;;2.55;;
73266;SDS011;61495;53.400;7.608;2023-04-27T14:05:57;5.68;;;2.30;;
73266;SDS011;61495;53.400;7.608;2023-04-27T14:08:23;6.00;;;2.63;;
73266;SDS011;61495;53.400;7.608;2023-04-27T14:10:48;5.25;;;2.78;;
73266;SDS011;61495;53.400;7.608;2023-04-27T14:13:14;5.05;;;3.20;;
73266;SDS011;61495;53.400;7.608;2023-04-27T14:15:39;5.13;;;3.00;;
73266;SDS011;61495;53.400;7.608;2023-04-27T14:18:06;5.32;;;3.60;;
73266;SDS011;61495;53.400;7.608;2023-04-27T14:20:32;6.68;;;3.38;;
73266;SDS011;61495;53.400;7.608;2023-04-27T14:22:58;5.90;;;3.40;;
73266;SDS011;61495;53.400;7.608;2023-04-27T14:25:24;5.28;;;3.33;;
73266;SDS011;61495;53.400;7.608;2023-04-27T14:27:51;7.18;;;3.00;;
73266;SDS011;61495;53.400;7.608;2023-04-27T14:30:16;6.72;;;3.60;;
73266;SDS011;61495;53.400;7.608;2023-04-27T14:32:42;6.70;;;3.53;;
73266;SDS011;61495;53.400;7.608;2023-04-27T14:35:07;7.32;;;3.63;;
73266;SDS011;61495;53.400;7.608;2023-04-27T14:37:32;5.85;;;3.80;;
73266;SDS011;61495;53.400;7.608;2023-04-27T14:39:58;5.50;;;3.50;;
73266;SDS011;61495;53.400;7.608;2023-04-27T14:42:24;6.57;;;3.80;;
73266;SDS011;61495;53.400;7.608;2023-04-27T14:44:49;7.20;;;3.53;;
73266;SDS011;61495;53.400;7.608;2023-04-27T14:47:15;6.90;;;3.25;;
73266;SDS011;61495;53.400;7.608;2023-04-27T14:49:40;7.03;;;3.83;;
73266;SDS011;61495;53.400;7.608;2023-04-27T14:52:06;7.85;;;4.15;;
73266;SDS011;61495;53.400;7.608;2023-04-27T14:54:31;6.47;;;4.45;;
73266;SDS011;61495;53.400;7.608;2023-04-27T14:56:56;4.97;;;3.50;;
73266;SDS011;61495;53.400;7.608;2023-04-27T14:59:22;8.27;;;3.80;;
73266;SDS011;61495;53.400;7.608;2023-04-27T15:01:48;9.98;;;3.80;;